CheckWX is a tool to help pilots better visualize weather data.  It is not intended as a substitute for an official pre-flight weather briefing.

06:08:12 UTC

LFOE METAR
Évreux-Fauville (BA 105) Air Base Airport
Évreux/Fauville, France
Current

38 mins ago

LFOE 260530Z AUTO 05009KT 5000 BR NSC 19/17 Q1021 NOSIG
Observed
Jun-26 @ 05:30 UTC
Wind
  • 050° at 9 KTS
Visibility
5,000 meters
Flight Rules
MVFR
Conditions
Mist
Cloud Levels
  • Clear skies
Temperature
19°C / 66°F
Dewpoint
17°C / 63°F
Humidity
88%
Altimeter
30.15" Hg
Pressure
1020.92 hPa
Previous

1 hour ago

LFOE 260500Z AUTO 32004KT 290V360 4800 BR NSC 18/17 Q1023 NOSIG
Observed
Jun-26 @ 05:00 UTC
Wind
  • 320° at 4 KTS
Visibility
4,800 meters
Flight Rules
IFR
Conditions
Mist
Cloud Levels
  • Clear skies
Temperature
18°C / 64°F
Dewpoint
17°C / 63°F
Humidity
94%
Altimeter
30.21" Hg
Pressure
1022.92 hPa
Previous

2 hours ago

LFOE 260430Z AUTO 35005KT 320V030 4400 BR FEW008 SCT140 17/17 Q1022 NOSIG
Observed
Jun-26 @ 04:30 UTC
Wind
  • 350° at 5 KTS
Visibility
4,400 meters
Flight Rules
IFR
Conditions
Mist
Cloud Levels
  • Few at 800' AGL
  • Scattered at 14,000' AGL
Temperature
17°C / 63°F
Dewpoint
17°C / 63°F
Humidity
100%
Altimeter
30.18" Hg
Pressure
1021.92 hPa